Time;durP1;ratioP1;P1;durP2;ratioP2;P2;SDS_P1;SDS_P2;PMS_P1;PMS_P2;Temp;Humidity;BMP_temperature;BMP_pressure;BME280_temperature;BME280_humidity;BME280_pressure;Samples;Min_cycle;Max_cycle;Signal;HPM_P1;HPM_P2
2024/02/18 00:01:55;;;;;;;;;;;;;;;-2.03;84.05;97461.41;7402197;19;1943;-66
2024/02/18 00:04:24;;;;;;;;;;;;;;;-2.01;84.41;97448.63;7401991;19;1014;-65
2024/02/18 00:06:52;;;;;;;;;;;;;;;-1.98;84.48;97451.25;7402403;19;1008;-66
2024/02/18 00:09:21;;;;;;;;;;;;;;;-1.97;84.35;97445.28;7401456;19;1850;-68
2024/02/18 00:11:52;;;;;;;;;;;;;;;-1.96;84.46;97443.59;7402051;19;1792;-67
2024/02/18 00:14:21;;;;;;;;;;;;;;;-1.94;84.16;97445.38;7401496;19;1189;-67
2024/02/18 00:16:49;;;;;;;;;;;;;;;-1.93;83.58;97447.09;7401646;19;1153;-68
2024/02/18 00:19:18;;;;;;;;;;;;;;;-1.87;83.60;97445.53;7401513;19;1120;-70
2024/02/18 00:21:46;;;;;;;;;;;;;;;-1.94;83.41;97447.94;7402273;19;1672;-71
2024/02/18 00:24:15;;;;;;;;;;;;;;;-1.99;83.14;97441.81;7401380;19;1116;-66
2024/02/18 00:26:44;;;;;;;;;;;;;;;-2.06;83.09;97440.78;7401776;19;1056;-72
2024/02/18 00:29:15;;;;;;;;;;;;;;;-2.05;83.28;97442.53;7401481;19;1867;-68
2024/02/18 00:31:43;;;;;;;;;;;;;;;-2.15;83.53;97448.22;7401156;19;1025;-66
2024/02/18 00:34:12;;;;;;;;;;;;;;;-2.16;84.05;97442.22;7401392;19;1734;-70
2024/02/18 00:36:40;;;;;;;;;;;;;;;-2.18;84.26;97443.91;7400924;19;1036;-70
2024/02/18 00:39:09;;;;;;;;;;;;;;;-2.21;84.17;97442.94;7399281;19;1108;-71
2024/02/18 00:41:38;;;;;;;;;;;;;;;-2.20;83.37;97434.44;7400809;19;1005;-63
2024/02/18 00:44:06;;;;;;;;;;;;;;;-2.21;82.84;97431.00;7400469;19;949;-70
2024/02/18 00:46:37;;;;;;;;;;;;;;;-2.31;83.85;97437.59;7400919;19;860;-69
2024/02/18 00:49:06;;;;;;;;;;;;;;;-2.24;84.21;97427.47;7400744;19;1814;-65
2024/02/18 00:51:34;;;;;;;;;;;;;;;-2.32;83.90;97433.25;7400869;19;985;-70
2024/02/18 00:54:03;;;;;;;;;;;;;;;-2.29;83.84;97428.22;7400746;19;1017;-67
2024/02/18 00:56:31;;;;;;;;;;;;;;;-2.30;83.88;97428.16;7400682;19;1760;-66
2024/02/18 00:58:59;;;;;;;;;;;;;;;-2.34;83.77;97426.34;7401005;19;1670;-69
2024/02/18 01:01:28;;;;;;;;;;;;;;;-2.32;83.82;97432.41;7400560;19;934;-68
2024/02/18 01:03:59;;;;;;;;;;;;;;;-2.30;83.81;97426.50;7400277;19;1914;-64
2024/02/18 01:06:28;;;;;;;;;;;;;;;-2.33;84.35;97420.41;7399938;19;1203;-70
2024/02/18 01:08:56;;;;;;;;;;;;;;;-2.28;84.58;97426.53;7399771;19;1119;-67
2024/02/18 01:11:25;;;;;;;;;;;;;;;-2.34;84.25;97422.09;7398030;19;1845;-66
2024/02/18 01:13:53;;;;;;;;;;;;;;;-2.31;84.00;97419.63;7400436;19;1730;-68
2024/02/18 01:16:22;;;;;;;;;;;;;;;-2.29;83.96;97423.09;7399542;19;1088;-67
2024/02/18 01:18:50;;;;;;;;;;;;;;;-2.26;83.70;97418.88;7400029;19;1041;-61
2024/02/18 01:21:22;;;;;;;;;;;;;;;-2.34;83.36;97416.97;7399490;19;1132;-70
2024/02/18 01:23:48;;;;;;;;;;;;;;;-2.35;83.55;97416.94;7399840;19;954;-70
2024/02/18 01:26:16;;;;;;;;;;;;;;;-2.39;83.49;97426.22;7399186;19;1017;-69
2024/02/18 01:28:45;;;;;;;;;;;;;;;-2.38;83.38;97407.44;7399096;19;1379;-66
2024/02/18 01:31:13;;;;;;;;;;;;;;;-2.37;83.34;97411.78;7397906;19;1842;-67
2024/02/18 01:33:42;;;;;;;;;;;;;;;-2.50;83.23;97402.84;7399316;19;2072;-73
2024/02/18 01:36:11;;;;;;;;;;;;;;;-2.55;84.04;97404.44;7398930;19;1005;-68
2024/02/18 01:38:42;;;;;;;;;;;;;;;-2.52;84.36;97406.22;7397810;19;1791;-64
2024/02/18 01:41:10;;;;;;;;;;;;;;;-2.54;84.78;97401.03;7399261;19;1020;-69
2024/02/18 01:43:39;;;;;;;;;;;;;;;-2.63;84.42;97400.78;7399162;19;948;-67
2024/02/18 01:46:08;;;;;;;;;;;;;;;-2.70;85.21;97400.63;7399160;19;972;-67
2024/02/18 01:48:37;;;;;;;;;;;;;;;-2.74;85.40;97393.66;7398542;19;1217;-71
2024/02/18 01:51:05;;;;;;;;;;;;;;;-2.72;86.25;97389.47;7397554;19;1894;-65
2024/02/18 01:53:34;;;;;;;;;;;;;;;-2.67;86.40;97395.59;7398956;19;1044;-65
2024/02/18 01:56:06;;;;;;;;;;;;;;;-2.75;86.43;97391.94;7396964;19;1069;-64
2024/02/18 01:58:35;;;;;;;;;;;;;;;-2.73;86.95;97390.28;7398787;19;1044;-69
2024/02/18 02:01:05;;;;;;;;;;;;;;;-2.74;86.68;97380.84;7398070;19;1123;-64
2024/02/18 02:03:34;;;;;;;;;;;;;;;-2.70;86.79;97379.25;7397949;19;1033;-67
2024/02/18 02:06:03;;;;;;;;;;;;;;;-2.76;87.21;97372.28;7398675;19;1789;-67
2024/02/18 02:08:32;;;;;;;;;;;;;;;-2.71;87.20;97380.94;7398216;19;1938;-67
2024/02/18 02:11:01;;;;;;;;;;;;;;;-2.76;86.36;97379.94;7396811;19;1914;-67
2024/02/18 02:13:32;;;;;;;;;;;;;;;-2.77;86.55;97380.75;7397938;19;1841;-67
2024/02/18 02:16:02;;;;;;;;;;;;;;;-2.73;86.19;97391.97;7397678;19;1315;-68
2024/02/18 02:18:30;;;;;;;;;;;;;;;-2.73;86.42;97384.28;7397530;19;1168;-70
2024/02/18 02:20:59;;;;;;;;;;;;;;;-2.76;86.43;97382.50;7397559;19;1044;-70
2024/02/18 02:23:27;;;;;;;;;;;;;;;-2.86;87.36;97383.09;7397834;19;1833;-71
2024/02/18 02:25:55;;;;;;;;;;;;;;;-2.82;88.11;97378.09;7397669;19;1832;-65
2024/02/18 02:28:27;;;;;;;;;;;;;;;-2.73;87.83;97380.03;7397250;19;1089;-68
2024/02/18 02:30:59;;;;;;;;;;;;;;;-2.82;87.92;97380.66;7396224;19;1828;-66
2024/02/18 02:33:28;;;;;;;;;;;;;;;-2.74;87.83;97387.69;7397543;19;1092;-66
2024/02/18 02:35:56;;;;;;;;;;;;;;;-2.69;86.92;97384.41;7397167;19;1013;-64
2024/02/18 02:38:25;;;;;;;;;;;;;;;-2.72;86.19;97383.44;7396437;19;1812;-66
2024/02/18 02:40:53;;;;;;;;;;;;;;;-2.73;86.29;97384.28;7397010;19;1127;-66
2024/02/18 02:43:22;;;;;;;;;;;;;;;-2.69;86.03;97381.84;7397305;19;1024;-70
2024/02/18 02:45:50;;;;;;;;;;;;;;;-2.67;85.61;97385.34;7397244;19;1067;-65
2024/02/18 02:48:21;;;;;;;;;;;;;;;-2.68;85.18;97390.44;7396653;19;1971;-68
2024/02/18 02:50:50;;;;;;;;;;;;;;;-2.74;85.42;97385.13;7396181;19;1853;-66
2024/02/18 02:53:19;;;;;;;;;;;;;;;-2.79;85.75;97390.97;7396797;19;1919;-62
2024/02/18 02:55:47;;;;;;;;;;;;;;;-2.79;85.83;97390.97;7396813;19;1872;-68
2024/02/18 02:58:16;;;;;;;;;;;;;;;-2.84;85.89;97392.53;7396377;19;1108;-66
2024/02/18 03:00:44;;;;;;;;;;;;;;;-2.88;86.05;97380.47;7396922;19;953;-69
2024/02/18 03:03:12;;;;;;;;;;;;;;;-2.92;86.47;97381.22;7396808;19;1801;-64
2024/02/18 03:05:44;;;;;;;;;;;;;;;-2.90;86.95;97383.78;7396909;19;976;-68
2024/02/18 03:08:12;;;;;;;;;;;;;;;-2.92;86.75;97371.81;7402968;19;1076;-66
2024/02/18 03:10:41;;;;;;;;;;;;;;;-2.96;86.50;97375.13;7403043;19;1842;-63
2024/02/18 03:13:09;;;;;;;;;;;;;;;-2.93;86.41;97376.91;7404540;19;1729;-68
2024/02/18 03:15:38;;;;;;;;;;;;;;;-2.97;86.49;97373.41;7404136;19;1016;-71
2024/02/18 03:18:07;;;;;;;;;;;;;;;-2.96;86.99;97374.25;7404046;19;1905;-63
2024/02/18 03:20:36;;;;;;;;;;;;;;;-2.92;87.06;97378.66;7403448;19;1095;-65
2024/02/18 03:23:07;;;;;;;;;;;;;;;-2.92;87.22;97378.66;7403869;19;1047;-67
2024/02/18 03:25:35;;;;;;;;;;;;;;;-2.88;87.42;97377.91;7403772;19;1078;-70
2024/02/18 03:28:04;;;;;;;;;;;;;;;-2.85;87.50;97377.13;7403546;19;1781;-65
2024/02/18 03:30:33;;;;;;;;;;;;;;;-2.87;86.85;97384.75;7403091;19;1851;-69
2024/02/18 03:33:01;;;;;;;;;;;;;;;-2.91;86.78;97385.50;7403482;19;960;-66
2024/02/18 03:35:30;;;;;;;;;;;;;;;-2.86;86.96;97383.94;7402956;19;1037;-65
2024/02/18 03:37:58;;;;;;;;;;;;;;;-2.83;86.50;97385.72;7402621;19;1862;-65
2024/02/18 03:40:30;;;;;;;;;;;;;;;-2.80;86.46;97388.38;7402794;19;1026;-69
2024/02/18 03:42:58;;;;;;;;;;;;;;;-2.78;86.00;97391.84;7402790;19;1135;-66
2024/02/18 03:45:27;;;;;;;;;;;;;;;-2.85;85.82;97390.81;7403155;19;1040;-65
2024/02/18 03:47:55;;;;;;;;;;;;;;;-2.81;85.95;97390.06;7402810;19;1788;-67
2024/02/18 03:50:23;;;;;;;;;;;;;;;-2.81;86.28;97396.88;7402286;19;1894;-69
2024/02/18 03:52:52;;;;;;;;;;;;;;;-2.81;86.75;97400.31;7402825;19;961;-65
2024/02/18 03:55:20;;;;;;;;;;;;;;;-2.76;87.16;97394.44;7402393;19;1057;-68
2024/02/18 03:57:51;;;;;;;;;;;;;;;-2.72;86.37;97397.16;7402823;19;1056;-68
2024/02/18 04:00:20;;;;;;;;;;;;;;;-2.76;86.26;97394.44;7402307;19;1860;-68
2024/02/18 04:02:48;;;;;;;;;;;;;;;-2.85;86.42;97401.06;7402619;19;1036;-69
2024/02/18 04:05:17;;;;;;;;;;;;;;;-2.83;87.25;97401.94;7401932;19;1112;-66
2024/02/18 04:07:45;;;;;;;;;;;;;;;-2.73;87.99;97405.66;7402395;19;1028;-68
2024/02/18 04:10:14;;;;;;;;;;;;;;;-2.73;88.44;97405.66;7402133;19;1822;-66
2024/02/18 04:12:43;;;;;;;;;;;;;;;-2.68;88.56;97404.09;7401841;19;1014;-69
2024/02/18 04:15:14;;;;;;;;;;;;;;;-2.59;88.79;97397.50;7402081;19;1895;-69
2024/02/18 04:17:43;;;;;;;;;;;;;;;-2.58;88.88;97401.78;7401492;19;1056;-67
2024/02/18 04:20:12;;;;;;;;;;;;;;;-2.51;89.79;97402.81;7400584;19;1877;-63
2024/02/18 04:22:40;;;;;;;;;;;;;;;-2.47;90.37;97397.81;7401654;19;1798;-68
2024/02/18 04:25:09;;;;;;;;;;;;;;;-2.42;91.18;97392.81;7401571;19;2234;-63
2024/02/18 04:27:37;;;;;;;;;;;;;;;-2.39;91.82;97386.91;7401598;19;1895;-68
2024/02/18 04:30:06;;;;;;;;;;;;;;;-2.33;92.10;97393.06;7401531;19;1915;-66
2024/02/18 04:32:37;;;;;;;;;;;;;;;-2.27;92.62;97389.81;7399052;19;1841;-64
2024/02/18 04:35:06;;;;;;;;;;;;;;;-2.22;93.13;97385.69;7401080;19;1422;-68
2024/02/18 04:37:35;;;;;;;;;;;;;;;-2.13;92.81;97395.31;7401408;19;1043;-69
2024/02/18 04:40:06;;;;;;;;;;;;;;;-2.09;92.56;97384.28;7398550;19;1191;-71
2024/02/18 04:42:35;;;;;;;;;;;;;;;-2.00;92.55;97393.03;7400778;19;1017;-68
2024/02/18 04:45:04;;;;;;;;;;;;;;;-1.91;92.68;97396.72;7401233;19;976;-68
2024/02/18 04:47:33;;;;;;;;;;;;;;;-1.87;92.51;97389.94;7401611;19;1042;-70
2024/02/18 04:50:04;;;;;;;;;;;;;;;-1.81;91.95;97386.66;7400600;19;1076;-66
2024/02/18 04:52:34;;;;;;;;;;;;;;;-1.74;91.60;97388.56;7398330;19;1853;-67
2024/02/18 04:55:03;;;;;;;;;;;;;;;-1.71;90.89;97390.34;7400510;19;1029;-69
2024/02/18 04:57:31;;;;;;;;;;;;;;;-1.71;90.87;97391.22;7400679;19;1024;-68
2024/02/18 05:00:00;;;;;;;;;;;;;;;-1.69;90.21;97399.81;7400576;19;1602;-66
2024/02/18 05:02:28;;;;;;;;;;;;;;;-1.70;90.50;97392.94;7400384;19;1839;-66
2024/02/18 05:04:57;;;;;;;;;;;;;;;-1.66;89.81;97394.75;7400117;19;1075;-68
2024/02/18 05:07:28;;;;;;;;;;;;;;;-1.67;89.27;97393.03;7400395;19;1815;-70
2024/02/18 05:09:56;;;;;;;;;;;;;;;-1.69;88.17;97392.09;7400043;19;1131;-62
2024/02/18 05:12:25;;;;;;;;;;;;;;;-1.69;87.76;97393.78;7398864;19;2327;-69
2024/02/18 05:14:53;;;;;;;;;;;;;;;-1.74;87.64;97387.69;7400097;19;1885;-63
2024/02/18 05:17:22;;;;;;;;;;;;;;;-1.74;88.07;97390.25;7400382;19;1620;-68
2024/02/18 05:19:51;;;;;;;;;;;;;;;-1.74;88.08;97391.16;7400348;19;1782;-72
2024/02/18 05:22:20;;;;;;;;;;;;;;;-1.64;87.98;97397.34;7399459;19;1037;-68
2024/02/18 05:24:51;;;;;;;;;;;;;;;-1.63;87.80;97398.22;7399759;19;1047;-66
2024/02/18 05:27:20;;;;;;;;;;;;;;;-1.77;87.19;97393.63;7399742;19;1012;-68
2024/02/18 05:29:48;;;;;;;;;;;;;;;-1.72;87.39;97399.72;7398545;19;966;-67
2024/02/18 05:32:18;;;;;;;;;;;;;;;-1.66;88.16;97399.00;7397164;19;1896;-66
2024/02/18 05:34:46;;;;;;;;;;;;;;;-1.66;87.69;97396.44;7399074;19;1142;-67
2024/02/18 05:37:15;;;;;;;;;;;;;;;-1.70;87.28;97404.91;7399259;19;1027;-66
2024/02/18 05:39:43;;;;;;;;;;;;;;;-1.76;86.86;97407.31;7397479;19;1236;-67
2024/02/18 05:42:14;;;;;;;;;;;;;;;-1.74;86.82;97400.53;7399106;19;1800;-64
2024/02/18 05:44:43;;;;;;;;;;;;;;;-1.71;87.04;97406.63;7399179;19;1044;-70
2024/02/18 05:47:12;;;;;;;;;;;;;;;-1.66;86.97;97405.00;7399052;19;1035;-68
2024/02/18 05:49:40;;;;;;;;;;;;;;;-1.59;87.01;97408.63;7399091;19;1024;-69
2024/02/18 05:52:09;;;;;;;;;;;;;;;-1.50;87.24;97409.66;7397733;19;1853;-65
2024/02/18 05:54:38;;;;;;;;;;;;;;;-1.37;87.49;97411.69;7398868;19;1024;-67
2024/02/18 05:57:07;;;;;;;;;;;;;;;-1.23;87.32;97411.13;7398560;19;1832;-67
2024/02/18 05:59:39;;;;;;;;;;;;;;;-1.02;87.14;97410.75;7398166;19;989;-70
2024/02/18 06:02:07;;;;;;;;;;;;;;;-0.78;86.89;97412.97;7398215;19;1209;-64
2024/02/18 06:04:36;;;;;;;;;;;;;;;-0.43;86.21;97422.25;7398359;19;1812;-67
2024/02/18 06:07:04;;;;;;;;;;;;;;;0.18;85.18;97427.66;7397994;19;1040;-65
2024/02/18 06:09:33;;;;;;;;;;;;;;;1.16;81.98;97426.56;7398420;19;1892;-67
2024/02/18 06:12:01;;;;;;;;;;;;;;;2.49;76.02;97431.47;7397432;19;1849;-73
2024/02/18 06:14:28;;;;;;;;;;;;;;;3.76;69.67;97435.66;7397985;19;1900;-66
2024/02/18 06:16:59;;;;;;;;;;;;;;;5.00;63.42;97452.22;7395902;19;1108;-74
2024/02/18 06:19:28;;;;;;;;;;;;;;;6.31;58.84;97450.91;7397491;19;941;-69
2024/02/18 06:21:57;;;;;;;;;;;;;;;7.21;55.33;97451.94;7397512;19;1084;-68
2024/02/18 06:24:27;;;;;;;;;;;;;;;8.28;51.66;97464.56;7397908;19;973;-65
2024/02/18 06:26:57;;;;;;;;;;;;;;;9.30;49.11;97463.88;7397351;19;1206;-71
2024/02/18 06:29:26;;;;;;;;;;;;;;;10.38;46.30;97469.56;7397697;19;936;-65
2024/02/18 06:31:54;;;;;;;;;;;;;;;11.12;43.76;97467.84;7396702;19;1842;-68
2024/02/18 06:34:25;;;;;;;;;;;;;;;11.87;42.60;97472.84;7397421;19;1849;-70
2024/02/18 06:36:54;;;;;;;;;;;;;;;12.40;41.27;97467.88;7397016;19;1353;-68
2024/02/18 06:39:23;;;;;;;;;;;;;;;13.01;40.01;97467.66;7395839;19;1115;-66
2024/02/18 06:41:53;;;;;;;;;;;;;;;13.60;39.28;97470.09;7396583;19;1012;-70
2024/02/18 06:44:22;;;;;;;;;;;;;;;13.97;37.72;97465.25;7396958;19;1025;-75
2024/02/18 06:46:51;;;;;;;;;;;;;;;14.12;37.73;97469.09;7396806;19;1968;-66
2024/02/18 06:49:19;;;;;;;;;;;;;;;14.11;37.34;97469.16;7397316;19;1032;-70
2024/02/18 06:51:53;;;;;;;;;;;;;;;14.10;38.55;97467.44;7396345;19;1842;-66
2024/02/18 06:54:22;;;;;;;;;;;;;;;14.39;38.17;97468.97;7396647;19;1020;-68
2024/02/18 06:56:51;;;;;;;;;;;;;;;14.96;37.26;97467.66;7396913;19;1908;-66
2024/02/18 06:59:20;;;;;;;;;;;;;;;15.43;36.22;97468.34;7396986;19;946;-69
2024/02/18 07:01:49;;;;;;;;;;;;;;;15.15;36.64;97475.63;7396359;19;1107;-69
2024/02/18 07:04:18;;;;;;;;;;;;;;;14.84;36.95;97468.16;7396422;19;1041;-68
2024/02/18 07:06:47;;;;;;;;;;;;;;;14.64;37.21;97478.56;7397072;19;1739;-71
2024/02/18 07:09:18;;;;;;;;;;;;;;;14.27;38.84;97465.03;7396276;19;1328;-65
2024/02/18 07:11:47;;;;;;;;;;;;;;;15.14;37.15;97467.81;7395536;19;1856;-71
2024/02/18 07:14:16;;;;;;;;;;;;;;;15.89;35.88;97473.38;7396580;19;1956;-69
2024/02/18 07:16:44;;;;;;;;;;;;;;;16.48;35.38;97477.81;7395992;19;1024;-74
2024/02/18 07:19:13;;;;;;;;;;;;;;;16.71;34.69;97473.22;7396289;19;1957;-71
2024/02/18 07:21:41;;;;;;;;;;;;;;;16.78;35.41;97463.19;7396004;19;1052;-67
2024/02/18 07:24:10;;;;;;;;;;;;;;;16.95;35.39;97469.44;7396275;19;1788;-66
2024/02/18 07:26:42;;;;;;;;;;;;;;;17.12;34.88;97469.50;7395803;19;1116;-74
2024/02/18 07:29:10;;;;;;;;;;;;;;;17.74;34.84;97470.78;7395811;19;1116;-69
2024/02/18 07:31:40;;;;;;;;;;;;;;;18.56;33.90;97467.34;7395518;19;1862;-73
2024/02/18 07:34:09;;;;;;;;;;;;;;;19.10;33.25;97462.59;7395648;19;1021;-70
2024/02/18 07:36:39;;;;;;;;;;;;;;;19.81;33.14;97470.81;7395459;19;1095;-73
2024/02/18 07:39:08;;;;;;;;;;;;;;;19.14;32.35;97475.59;7393806;19;1332;-64
2024/02/18 07:41:38;;;;;;;;;;;;;;;18.35;32.76;97474.69;7395274;19;1073;-71
2024/02/18 07:44:10;;;;;;;;;;;;;;;18.67;33.16;97480.00;7395287;19;1013;-72
2024/02/18 07:46:40;;;;;;;;;;;;;;;19.19;32.06;97473.53;7395647;19;1008;-67
2024/02/18 07:49:10;;;;;;;;;;;;;;;19.75;32.37;97479.97;7395177;19;959;-69
2024/02/18 07:51:42;;;;;;;;;;;;;;;20.35;31.19;97466.66;7394605;19;1857;-70
2024/02/18 07:54:11;;;;;;;;;;;;;;;20.92;30.42;97448.00;7398155;19;1124;-67
2024/02/18 07:56:47;;;;;;;;;;;;;;;21.25;30.05;97452.00;7402731;19;980;-68
2024/02/18 07:59:21;;;;;;;;;;;;;;;21.38;29.78;97449.41;7402303;19;1028;-72
2024/02/18 08:01:50;;;;;;;;;;;;;;;20.33;31.02;97447.28;7402610;19;990;-64
2024/02/18 08:04:19;;;;;;;;;;;;;;;19.69;32.21;97451.19;7402093;19;1033;-64
2024/02/18 08:06:48;;;;;;;;;;;;;;;18.27;35.13;97448.63;7402127;19;1021;-71
2024/02/18 08:09:17;;;;;;;;;;;;;;;18.36;35.22;97441.97;7400216;19;1336;-68
2024/02/18 08:11:46;;;;;;;;;;;;;;;18.30;34.98;97449.31;7401563;19;1856;-72
2024/02/18 08:14:18;;;;;;;;;;;;;;;17.73;35.57;97449.69;7401898;19;1025;-69
2024/02/18 08:16:47;;;;;;;;;;;;;;;17.44;37.11;97445.00;7401801;19;1076;-68
2024/02/18 08:19:16;;;;;;;;;;;;;;;16.77;37.71;97448.28;7402046;19;1903;-67
2024/02/18 08:21:45;;;;;;;;;;;;;;;16.27;38.66;97450.63;7401648;19;1037;-73
2024/02/18 08:24:14;;;;;;;;;;;;;;;15.79;40.37;97443.94;7401860;19;968;-65
2024/02/18 08:26:43;;;;;;;;;;;;;;;15.39;41.13;97437.78;7401379;19;1554;-74
2024/02/18 08:29:11;;;;;;;;;;;;;;;14.69;43.03;97430.09;7401708;19;972;-68
2024/02/18 08:31:43;;;;;;;;;;;;;;;14.39;43.47;97431.28;7401239;19;1849;-66
2024/02/18 08:34:11;;;;;;;;;;;;;;;14.36;44.49;97434.03;7401088;19;1005;-64
2024/02/18 08:36:40;;;;;;;;;;;;;;;14.14;45.39;97438.34;7401012;19;1049;-66
2024/02/18 08:39:09;;;;;;;;;;;;;;;14.25;45.57;97437.06;7399763;19;1166;-68
2024/02/18 08:41:38;;;;;;;;;;;;;;;13.86;47.04;97439.38;7400803;19;1096;-67
2024/02/18 08:44:07;;;;;;;;;;;;;;;13.69;47.13;97444.41;7401220;19;1037;-72
2024/02/18 08:46:35;;;;;;;;;;;;;;;13.14;48.78;97447.13;7400973;19;1825;-64
2024/02/18 08:49:07;;;;;;;;;;;;;;;13.10;49.23;97434.97;7401089;19;2011;-63
2024/02/18 08:51:37;;;;;;;;;;;;;;;13.13;49.71;97434.88;7400482;19;1111;-72
2024/02/18 08:54:05;;;;;;;;;;;;;;;13.06;49.38;97437.78;7398112;19;1857;-70
2024/02/18 08:56:34;;;;;;;;;;;;;;;13.03;49.11;97436.09;7400398;19;1119;-71
2024/02/18 08:59:03;;;;;;;;;;;;;;;12.87;49.23;97433.13;7400269;19;966;-74
2024/02/18 09:01:31;;;;;;;;;;;;;;;13.10;50.47;97436.75;7400413;19;1715;-70
2024/02/18 09:04:00;;;;;;;;;;;;;;;13.30;50.10;97433.44;7400545;19;1008;-73
2024/02/18 09:06:31;;;;;;;;;;;;;;;13.34;49.04;97429.78;7399711;19;1123;-69
2024/02/18 09:09:00;;;;;;;;;;;;;;;13.42;47.29;97429.50;7399978;19;1048;-71
2024/02/18 09:11:28;;;;;;;;;;;;;;;13.16;48.04;97435.69;7400107;19;1851;-73
2024/02/18 09:13:57;;;;;;;;;;;;;;;13.10;49.22;97434.97;7397814;19;1842;-71
2024/02/18 09:16:26;;;;;;;;;;;;;;;13.19;50.22;97430.31;7399676;19;1108;-70
2024/02/18 09:18:54;;;;;;;;;;;;;;;13.35;47.45;97431.50;7399721;19;1009;-67
2024/02/18 09:21:24;;;;;;;;;;;;;;;13.46;47.26;97422.41;7399569;19;1049;-69
2024/02/18 09:23:56;;;;;;;;;;;;;;;13.62;45.68;97426.22;7400032;19;985;-70
2024/02/18 09:26:25;;;;;;;;;;;;;;;13.73;46.29;97422.34;7399904;19;1012;-67
2024/02/18 09:28:54;;;;;;;;;;;;;;;13.83;44.32;97426.34;7399365;19;1189;-71
2024/02/18 09:31:23;;;;;;;;;;;;;;;14.06;43.16;97416.72;7399282;19;1140;-72
2024/02/18 09:33:51;;;;;;;;;;;;;;;14.26;44.99;97420.34;7397883;19;1853;-76
2024/02/18 09:36:20;;;;;;;;;;;;;;;14.48;43.32;97419.53;7398860;19;1057;-69
2024/02/18 09:38:51;;;;;;;;;;;;;;;14.72;43.51;97429.97;7398093;19;1020;-67
2024/02/18 09:41:23;;;;;;;;;;;;;;;14.79;42.20;97420.94;7398817;19;1017;-69
2024/02/18 09:43:54;;;;;;;;;;;;;;;14.75;43.88;97427.22;7399142;19;1023;-70
2024/02/18 09:46:26;;;;;;;;;;;;;;;14.80;43.69;97425.28;7398694;19;1231;-75
2024/02/18 09:48:55;;;;;;;;;;;;;;;15.03;44.22;97413.78;7398735;19;1104;-72
2024/02/18 09:51:24;;;;;;;;;;;;;;;15.32;43.14;97416.09;7398541;19;1092;-73
2024/02/18 09:53:54;;;;;;;;;;;;;;;15.20;40.44;97417.47;7397011;19;1848;-68
2024/02/18 09:56:27;;;;;;;;;;;;;;;15.10;41.92;97416.16;7398766;19;1036;-73
2024/02/18 09:58:56;;;;;;;;;;;;;;;14.93;40.13;97407.19;7398419;19;1025;-73
2024/02/18 10:01:25;;;;;;;;;;;;;;;14.66;40.29;97417.94;7398259;19;1107;-73
2024/02/18 10:03:54;;;;;;;;;;;;;;;14.53;39.54;97401.75;7398458;19;1800;-65
2024/02/18 10:06:22;;;;;;;;;;;;;;;14.45;40.93;97401.22;7398810;19;1021;-71
2024/02/18 10:08:54;;;;;;;;;;;;;;;14.68;40.14;97396.78;7398320;19;1749;-71
2024/02/18 10:11:26;;;;;;;;;;;;;;;14.55;39.76;97392.03;7398307;19;965;-71
2024/02/18 10:13:59;;;;;;;;;;;;;;;14.35;39.62;97398.94;7396416;19;1854;-69
2024/02/18 10:16:28;;;;;;;;;;;;;;;14.12;39.73;97395.44;7396254;19;1128;-69
2024/02/18 10:18:57;;;;;;;;;;;;;;;13.95;40.53;97397.84;7397703;19;1006;-70
2024/02/18 10:21:25;;;;;;;;;;;;;;;13.84;39.89;97401.75;7397504;19;1033;-72
2024/02/18 10:23:54;;;;;;;;;;;;;;;13.66;40.43;97395.41;7397567;19;1119;-71
2024/02/18 10:26:24;;;;;;;;;;;;;;;13.59;40.38;97394.78;7397380;19;1049;-66
2024/02/18 10:28:55;;;;;;;;;;;;;;;13.44;41.27;97397.94;7397366;19;1112;-71
2024/02/18 10:31:24;;;;;;;;;;;;;;;13.17;40.48;97385.72;7397246;19;1041;-72
2024/02/18 10:33:56;;;;;;;;;;;;;;;12.73;41.83;97397.69;7396746;19;1841;-70
2024/02/18 10:36:28;;;;;;;;;;;;;;;12.69;42.49;97390.81;7397156;19;1181;-66
2024/02/18 10:39:00;;;;;;;;;;;;;;;12.60;42.90;97392.00;7395936;19;1159;-72
2024/02/18 10:41:34;;;;;;;;;;;;;;;12.55;43.14;97391.25;7397567;19;956;-73
2024/02/18 10:44:12;;;;;;;;;;;;;;;12.46;43.25;97388.97;7397544;19;1005;-70
2024/02/18 10:46:43;;;;;;;;;;;;;;;12.17;43.42;97390.72;7397368;19;1028;-69
2024/02/18 10:49:17;;;;;;;;;;;;;;;12.02;44.12;97395.50;7396820;19;1260;-65
2024/02/18 10:51:49;;;;;;;;;;;;;;;12.01;44.19;97392.00;7396779;19;966;-67
2024/02/18 10:54:26;;;;;;;;;;;;;;;11.95;43.88;97393.97;7395194;19;1834;-72
2024/02/18 10:56:55;;;;;;;;;;;;;;;11.99;44.83;97379.88;7396789;19;1040;-68
2024/02/18 10:59:27;;;;;;;;;;;;;;;12.08;43.74;97384.00;7396993;19;1015;-67
2024/02/18 11:01:57;;;;;;;;;;;;;;;12.11;44.37;97382.16;7396409;19;1107;-69
2024/02/18 11:04:28;;;;;;;;;;;;;;;12.19;44.71;97375.81;7396894;19;946;-63
2024/02/18 11:06:57;;;;;;;;;;;;;;;12.22;43.38;97373.09;7396310;19;1049;-69
2024/02/18 11:09:27;;;;;;;;;;;;;;;12.19;44.16;97370.56;7396222;19;1127;-66
2024/02/18 11:11:56;;;;;;;;;;;;;;;12.17;43.86;97372.38;7396138;19;1123;-70
2024/02/18 11:14:28;;;;;;;;;;;;;;;12.27;42.58;97368.53;7394410;19;1849;-69
2024/02/18 11:16:57;;;;;;;;;;;;;;;12.44;42.92;97369.78;7395958;19;1049;-68
2024/02/18 11:19:26;;;;;;;;;;;;;;;12.68;42.47;97362.00;7395947;19;1092;-69
2024/02/18 11:21:55;;;;;;;;;;;;;;;12.86;43.11;97365.78;7396246;19;1907;-67
2024/02/18 11:24:25;;;;;;;;;;;;;;;12.86;42.85;97355.28;7395799;19;1104;-70
2024/02/18 11:26:54;;;;;;;;;;;;;;;12.97;41.39;97365.38;7396196;19;1956;-70
2024/02/18 11:29:23;;;;;;;;;;;;;;;13.05;41.79;97371.25;7399529;19;1146;-65
2024/02/18 11:31:54;;;;;;;;;;;;;;;13.16;41.28;97375.25;7403144;19;1120;-70
2024/02/18 11:34:23;;;;;;;;;;;;;;;13.05;40.48;97373.88;7401329;19;1912;-67
2024/02/18 11:36:52;;;;;;;;;;;;;;;12.99;40.88;97361.81;7402969;19;1165;-69
2024/02/18 11:39:22;;;;;;;;;;;;;;;12.98;40.86;97372.38;7400850;19;1095;-69
2024/02/18 11:41:55;;;;;;;;;;;;;;;12.90;40.54;97367.38;7402478;19;1224;-62
2024/02/18 11:44:24;;;;;;;;;;;;;;;12.84;40.99;97357.94;7402791;19;1094;-71
2024/02/18 11:46:56;;;;;;;;;;;;;;;12.79;41.55;97361.66;7402649;19;1849;-67
2024/02/18 11:49:26;;;;;;;;;;;;;;;12.74;41.12;97365.25;7402556;19;1116;-71
2024/02/18 11:51:54;;;;;;;;;;;;;;;12.68;41.25;97357.63;7402451;19;1041;-69
2024/02/18 11:54:25;;;;;;;;;;;;;;;12.59;41.90;97356.16;7400530;19;1842;-66
2024/02/18 11:56:57;;;;;;;;;;;;;;;12.67;41.16;97358.50;7402357;19;1041;-66
2024/02/18 11:59:28;;;;;;;;;;;;;;;12.83;41.45;97353.63;7402322;19;1091;-72
2024/02/18 12:01:59;;;;;;;;;;;;;;;12.93;40.46;97350.66;7402180;19;1401;-65
2024/02/18 12:04:29;;;;;;;;;;;;;;;12.89;39.97;97342.88;7402176;19;1099;-71
2024/02/18 12:06:59;;;;;;;;;;;;;;;12.95;40.64;97346.22;7402011;19;1296;-69
2024/02/18 12:09:29;;;;;;;;;;;;;;;13.08;40.54;97346.63;7401926;19;1769;-68
2024/02/18 12:11:59;;;;;;;;;;;;;;;13.19;41.09;97352.38;7401765;19;1081;-66
2024/02/18 12:14:27;;;;;;;;;;;;;;;13.32;39.83;97355.41;7399884;19;1833;-68
2024/02/18 12:16:59;;;;;;;;;;;;;;;13.38;41.91;97346.44;7401645;19;1191;-72
2024/02/18 12:19:28;;;;;;;;;;;;;;;13.42;42.54;97355.09;7401581;19;1104;-70
2024/02/18 12:21:58;;;;;;;;;;;;;;;13.32;43.61;97347.53;7401444;19;1124;-68
2024/02/18 12:24:28;;;;;;;;;;;;;;;13.16;41.64;97346.38;7401391;19;1139;-74
2024/02/18 12:26:57;;;;;;;;;;;;;;;13.14;42.37;97341.16;7401175;19;1100;-68
2024/02/18 12:29:26;;;;;;;;;;;;;;;13.11;45.16;97339.50;7401408;19;1126;-67
2024/02/18 12:31:56;;;;;;;;;;;;;;;13.19;45.58;97338.38;7401112;19;1129;-61
2024/02/18 12:34:29;;;;;;;;;;;;;;;13.26;44.54;97334.63;7399623;19;1861;-68
2024/02/18 12:36:58;;;;;;;;;;;;;;;13.27;44.53;97331.06;7401006;19;1103;-72
2024/02/18 12:39:30;;;;;;;;;;;;;;;13.39;43.40;97329.75;7398235;19;1100;-71
2024/02/18 12:41:59;;;;;;;;;;;;;;;13.50;43.85;97324.16;7401365;19;976;-66
2024/02/18 12:44:28;;;;;;;;;;;;;;;13.55;44.85;97323.97;7401334;19;1079;-66
2024/02/18 12:46:58;;;;;;;;;;;;;;;13.55;44.74;97326.59;7400740;19;1010;-66
2024/02/18 12:49:29;;;;;;;;;;;;;;;13.33;45.00;97333.47;7401455;19;1702;-71
2024/02/18 12:52:04;;;;;;;;;;;;;;;13.25;45.60;97333.75;7400603;19;1029;-71
2024/02/18 12:54:33;;;;;;;;;;;;;;;13.25;44.71;97333.75;7399038;19;1850;-71
2024/02/18 12:57:01;;;;;;;;;;;;;;;13.12;46.04;97325.47;7400264;19;1393;-65
2024/02/18 12:59:31;;;;;;;;;;;;;;;13.09;46.75;97332.59;7400294;19;1151;-77
2024/02/18 13:02:00;;;;;;;;;;;;;;;13.05;46.96;97334.47;7400170;19;1024;-69
2024/02/18 13:04:31;;;;;;;;;;;;;;;12.93;47.41;97334.91;7400153;19;1115;-70
2024/02/18 13:07:04;;;;;;;;;;;;;;;12.95;47.14;97333.97;7400114;19;1036;-67
2024/02/18 13:09:33;;;;;;;;;;;;;;;12.88;47.14;97335.06;7400416;19;953;-70